sensor_id;sensor_type;location;lat;lon;timestamp;pressure;altitude;pressure_sealevel;temperature;humidity
77013;BME280;67260;53.130;17.982;2023-08-06T00:01:16;100374.73;;;15.76;84.19
77013;BME280;67260;53.130;17.982;2023-08-06T00:03:49;100367.46;;;15.73;84.24
77013;BME280;67260;53.130;17.982;2023-08-06T00:06:16;100364.98;;;15.72;84.28
77013;BME280;67260;53.130;17.982;2023-08-06T00:08:58;100351.80;;;15.71;84.07
77013;BME280;67260;53.130;17.982;2023-08-06T00:11:25;100344.20;;;15.72;84.26
77013;BME280;67260;53.130;17.982;2023-08-06T00:13:52;100334.79;;;15.73;84.24
77013;BME280;67260;53.130;17.982;2023-08-06T00:16:19;100323.97;;;15.73;84.44
77013;BME280;67260;53.130;17.982;2023-08-06T00:18:45;100317.17;;;15.69;84.26
77013;BME280;67260;53.130;17.982;2023-08-06T00:21:12;100318.96;;;15.66;84.30
77013;BME280;67260;53.130;17.982;2023-08-06T00:23:41;100317.04;;;15.61;84.40
77013;BME280;67260;53.130;17.982;2023-08-06T00:26:07;100320.95;;;15.56;84.63
77013;BME280;67260;53.130;17.982;2023-08-06T00:28:37;100316.89;;;15.55;84.67
77013;BME280;67260;53.130;17.982;2023-08-06T00:31:07;100307.23;;;15.53;84.86
77013;BME280;67260;53.130;17.982;2023-08-06T00:33:34;100297.13;;;15.54;85.01
77013;BME280;67260;53.130;17.982;2023-08-06T00:36:04;100295.54;;;15.55;85.07
77013;BME280;67260;53.130;17.982;2023-08-06T00:38:32;100288.36;;;15.55;84.86
77013;BME280;67260;53.130;17.982;2023-08-06T00:40:59;100280.15;;;15.57;84.97
77013;BME280;67260;53.130;17.982;2023-08-06T00:43:26;100270.48;;;15.60;85.08
77013;BME280;67260;53.130;17.982;2023-08-06T00:45:53;100273.95;;;15.64;84.80
77013;BME280;67260;53.130;17.982;2023-08-06T00:48:20;100267.35;;;15.67;85.06
77013;BME280;67260;53.130;17.982;2023-08-06T00:50:47;100272.27;;;15.68;84.93
77013;BME280;67260;53.130;17.982;2023-08-06T00:53:14;100270.22;;;15.70;85.00
77013;BME280;67260;53.130;17.982;2023-08-06T00:55:44;100258.42;;;15.74;84.93
77013;BME280;67260;53.130;17.982;2023-08-06T00:58:12;100250.52;;;15.77;84.79
77013;BME280;67260;53.130;17.982;2023-08-06T01:00:40;100237.17;;;15.76;84.84
77013;BME280;67260;53.130;17.982;2023-08-06T01:03:07;100229.09;;;15.71;84.96
77013;BME280;67260;53.130;17.982;2023-08-06T01:05:35;100219.54;;;15.68;85.10
77013;BME280;67260;53.130;17.982;2023-08-06T01:08:15;100214.74;;;15.71;85.13
77013;BME280;67260;53.130;17.982;2023-08-06T01:16:20;100187.05;;;15.71;85.22
77013;BME280;67260;53.130;17.982;2023-08-06T01:18:48;100178.36;;;15.70;85.23
77013;BME280;67260;53.130;17.982;2023-08-06T01:21:17;100172.70;;;15.72;85.28
77013;BME280;67260;53.130;17.982;2023-08-06T01:23:45;100159.01;;;15.74;85.19
77013;BME280;67260;53.130;17.982;2023-08-06T01:31:48;100116.79;;;15.72;85.51
77013;BME280;67260;53.130;17.982;2023-08-06T01:34:21;100108.42;;;15.69;85.51
77013;BME280;67260;53.130;17.982;2023-08-06T01:36:50;100101.77;;;15.68;85.73
77013;BME280;67260;53.130;17.982;2023-08-06T01:39:17;100101.73;;;15.65;85.70
77013;BME280;67260;53.130;17.982;2023-08-06T01:41:57;100099.69;;;15.64;85.74
77013;BME280;67260;53.130;17.982;2023-08-06T01:44:25;100094.86;;;15.62;85.74
77013;BME280;67260;53.130;17.982;2023-08-06T01:46:52;100090.69;;;15.62;85.72
77013;BME280;67260;53.130;17.982;2023-08-06T01:49:19;100083.09;;;15.64;85.67
77013;BME280;67260;53.130;17.982;2023-08-06T01:51:47;100079.88;;;15.64;85.76
77013;BME280;67260;53.130;17.982;2023-08-06T01:54:14;100075.92;;;15.66;85.83
77013;BME280;67260;53.130;17.982;2023-08-06T01:56:41;100063.07;;;15.65;86.03
77013;BME280;67260;53.130;17.982;2023-08-06T01:59:07;100052.66;;;15.64;85.88
77013;BME280;67260;53.130;17.982;2023-08-06T02:01:37;100052.95;;;15.65;85.71
77013;BME280;67260;53.130;17.982;2023-08-06T02:04:04;100042.55;;;15.65;85.91
77013;BME280;67260;53.130;17.982;2023-08-06T02:06:35;100035.02;;;15.67;86.17
77013;BME280;67260;53.130;17.982;2023-08-06T02:12:20;100008.61;;;15.66;86.15
77013;BME280;67260;53.130;17.982;2023-08-06T02:14:53;99999.71;;;15.65;86.01
77013;BME280;67260;53.130;17.982;2023-08-06T02:17:21;99982.46;;;15.63;86.27
77013;BME280;67260;53.130;17.982;2023-08-06T02:19:58;99967.73;;;15.61;86.23
77013;BME280;67260;53.130;17.982;2023-08-06T02:22:31;99950.77;;;15.60;86.19
77013;BME280;67260;53.130;17.982;2023-08-06T02:24:58;99944.75;;;15.58;86.34
77013;BME280;67260;53.130;17.982;2023-08-06T02:27:26;99936.36;;;15.56;86.34
77013;BME280;67260;53.130;17.982;2023-08-06T02:29:53;99942.45;;;15.55;86.58
77013;BME280;67260;53.130;17.982;2023-08-06T02:32:20;99945.28;;;15.53;86.55
77013;BME280;67260;53.130;17.982;2023-08-06T02:34:48;99951.45;;;15.53;86.59
77013;BME280;67260;53.130;17.982;2023-08-06T02:37:15;99952.38;;;15.56;86.68
77013;BME280;67260;53.130;17.982;2023-08-06T02:39:45;99957.34;;;15.58;86.68
77013;BME280;67260;53.130;17.982;2023-08-06T02:42:24;99960.73;;;15.60;86.41
77013;BME280;67260;53.130;17.982;2023-08-06T02:44:54;99963.88;;;15.63;86.41
77013;BME280;67260;53.130;17.982;2023-08-06T02:47:22;99960.00;;;15.69;86.33
77013;BME280;67260;53.130;17.982;2023-08-06T02:49:48;99949.41;;;15.73;86.22
77013;BME280;67260;53.130;17.982;2023-08-06T02:52:16;99948.04;;;15.75;85.94
77013;BME280;67260;53.130;17.982;2023-08-06T02:54:42;99948.25;;;15.75;85.92
77013;BME280;67260;53.130;17.982;2023-08-06T02:57:09;99949.53;;;15.74;86.18
77013;BME280;67260;53.130;17.982;2023-08-06T02:59:36;99947.45;;;15.75;86.23
77013;BME280;67260;53.130;17.982;2023-08-06T03:02:13;99941.30;;;15.77;86.08
77013;BME280;67260;53.130;17.982;2023-08-06T03:04:49;99946.18;;;15.79;86.07
77013;BME280;67260;53.130;17.982;2023-08-06T03:07:18;99945.55;;;15.79;86.03
77013;BME280;67260;53.130;17.982;2023-08-06T03:09:51;99944.11;;;15.81;85.95
77013;BME280;67260;53.130;17.982;2023-08-06T03:12:31;99938.86;;;15.80;86.06
77013;BME280;67260;53.130;17.982;2023-08-06T03:15:10;99929.70;;;15.83;86.09
77013;BME280;67260;53.130;17.982;2023-08-06T03:17:41;99940.64;;;15.82;86.08
77013;BME280;67260;53.130;17.982;2023-08-06T03:20:10;99945.19;;;15.82;86.02
77013;BME280;67260;53.130;17.982;2023-08-06T03:22:41;99940.31;;;15.81;86.06
77013;BME280;67260;53.130;17.982;2023-08-06T03:25:08;99940.59;;;15.83;86.07
77013;BME280;67260;53.130;17.982;2023-08-06T03:27:46;99945.27;;;15.88;86.13
77013;BME280;67260;53.130;17.982;2023-08-06T03:30:18;99943.21;;;15.84;86.01
77013;BME280;67260;53.130;17.982;2023-08-06T03:32:45;99939.04;;;15.83;86.38
77013;BME280;67260;53.130;17.982;2023-08-06T03:35:15;99930.44;;;15.89;86.40
77013;BME280;67260;53.130;17.982;2023-08-06T03:37:46;99923.92;;;15.95;86.29
77013;BME280;67260;53.130;17.982;2023-08-06T03:40:25;99916.94;;;16.03;86.09
77013;BME280;67260;53.130;17.982;2023-08-06T03:42:59;99910.36;;;16.06;85.90
77013;BME280;67260;53.130;17.982;2023-08-06T03:45:34;99895.80;;;16.05;85.82
77013;BME280;67260;53.130;17.982;2023-08-06T03:48:02;99884.73;;;16.01;85.56
77013;BME280;67260;53.130;17.982;2023-08-06T03:50:29;99868.77;;;15.97;85.80
77013;BME280;67260;53.130;17.982;2023-08-06T03:53:13;99851.91;;;15.91;85.84
77013;BME280;67260;53.130;17.982;2023-08-06T03:55:43;99829.98;;;15.88;86.00
77013;BME280;67260;53.130;17.982;2023-08-06T03:58:13;99814.92;;;15.86;86.09
77013;BME280;67260;53.130;17.982;2023-08-06T04:01:10;99793.98;;;15.82;86.32
77013;BME280;67260;53.130;17.982;2023-08-06T04:03:45;99772.97;;;15.80;86.50
77013;BME280;67260;53.130;17.982;2023-08-06T04:06:12;99750.63;;;15.78;86.38
77013;BME280;67260;53.130;17.982;2023-08-06T04:08:39;99732.05;;;15.78;86.66
77013;BME280;67260;53.130;17.982;2023-08-06T04:11:08;99733.22;;;15.79;86.78
77013;BME280;67260;53.130;17.982;2023-08-06T04:13:38;99743.30;;;15.82;86.80
77013;BME280;67260;53.130;17.982;2023-08-06T04:16:13;99733.02;;;15.84;86.71
77013;BME280;67260;53.130;17.982;2023-08-06T04:22:43;99735.86;;;15.85;86.71
77013;BME280;67260;53.130;17.982;2023-08-06T04:25:26;99736.09;;;15.87;86.62
77013;BME280;67260;53.130;17.982;2023-08-06T04:28:54;99736.67;;;15.90;86.62
77013;BME280;67260;53.130;17.982;2023-08-06T04:31:28;99732.19;;;15.93;86.53
77013;BME280;67260;53.130;17.982;2023-08-06T04:33:55;99732.02;;;15.94;86.51
77013;BME280;67260;53.130;17.982;2023-08-06T04:36:46;99734.76;;;15.96;86.46
77013;BME280;67260;53.130;17.982;2023-08-06T04:39:13;99736.46;;;15.98;86.59
77013;BME280;67260;53.130;17.982;2023-08-06T04:41:40;99737.06;;;16.00;86.75
77013;BME280;67260;53.130;17.982;2023-08-06T04:44:32;99740.45;;;16.07;86.50
77013;BME280;67260;53.130;17.982;2023-08-06T04:47:08;99733.54;;;16.11;86.42
77013;BME280;67260;53.130;17.982;2023-08-06T04:49:35;99730.48;;;16.15;86.58
77013;BME280;67260;53.130;17.982;2023-08-06T04:52:13;99727.23;;;16.20;86.56
77013;BME280;67260;53.130;17.982;2023-08-06T04:54:59;99707.70;;;16.26;86.46
77013;BME280;67260;53.130;17.982;2023-08-06T04:57:26;99681.71;;;16.28;86.23
77013;BME280;67260;53.130;17.982;2023-08-06T04:59:53;99665.69;;;16.27;86.20
77013;BME280;67260;53.130;17.982;2023-08-06T05:02:20;99652.08;;;16.26;86.37
77013;BME280;67260;53.130;17.982;2023-08-06T05:05:06;99639.70;;;16.27;86.17
77013;BME280;67260;53.130;17.982;2023-08-06T05:08:06;99633.90;;;16.28;86.48
77013;BME280;67260;53.130;17.982;2023-08-06T05:11:18;99629.08;;;16.29;86.67
77013;BME280;67260;53.130;17.982;2023-08-06T05:13:45;99647.67;;;16.31;86.50
77013;BME280;67260;53.130;17.982;2023-08-06T05:16:14;99667.08;;;16.34;86.57
77013;BME280;67260;53.130;17.982;2023-08-06T05:19:08;99673.13;;;16.37;86.55
77013;BME280;67260;53.130;17.982;2023-08-06T05:21:37;99667.98;;;16.39;86.64
77013;BME280;67260;53.130;17.982;2023-08-06T05:24:04;99657.73;;;16.40;86.64
77013;BME280;67260;53.130;17.982;2023-08-06T05:26:38;99654.56;;;16.46;86.80
77013;BME280;67260;53.130;17.982;2023-08-06T05:29:05;99657.98;;;16.50;86.73
77013;BME280;67260;53.130;17.982;2023-08-06T05:31:47;99654.13;;;16.53;86.78
77013;BME280;67260;53.130;17.982;2023-08-06T05:34:28;99655.63;;;16.56;86.81
77013;BME280;67260;53.130;17.982;2023-08-06T05:37:00;99664.08;;;16.61;86.77
77013;BME280;67260;53.130;17.982;2023-08-06T05:39:28;99667.23;;;16.64;86.77
77013;BME280;67260;53.130;17.982;2023-08-06T05:41:54;99665.02;;;16.67;86.76
77013;BME280;67260;53.130;17.982;2023-08-06T05:44:23;99657.56;;;16.72;86.83
77013;BME280;67260;53.130;17.982;2023-08-06T05:46:54;99653.36;;;16.78;86.76
77013;BME280;67260;53.130;17.982;2023-08-06T05:49:33;99653.45;;;16.83;86.74
77013;BME280;67260;53.130;17.982;2023-08-06T05:52:06;99658.27;;;16.86;86.70
77013;BME280;67260;53.130;17.982;2023-08-06T05:54:40;99664.48;;;16.92;86.79
77013;BME280;67260;53.130;17.982;2023-08-06T05:57:12;99654.58;;;16.98;86.68
77013;BME280;67260;53.130;17.982;2023-08-06T05:59:40;99656.21;;;17.05;86.67
77013;BME280;67260;53.130;17.982;2023-08-06T06:02:07;99648.51;;;17.11;86.44
77013;BME280;67260;53.130;17.982;2023-08-06T06:04:38;99647.52;;;17.15;86.39
77013;BME280;67260;53.130;17.982;2023-08-06T06:07:06;99639.93;;;17.20;86.24
77013;BME280;67260;53.130;17.982;2023-08-06T06:09:34;99628.00;;;17.23;86.38
77013;BME280;67260;53.130;17.982;2023-08-06T06:14:51;99614.41;;;17.33;86.41
77013;BME280;67260;53.130;17.982;2023-08-06T06:17:32;99614.44;;;17.37;86.53
77013;BME280;67260;53.130;17.982;2023-08-06T06:20:02;99608.93;;;17.42;86.32
77013;BME280;67260;53.130;17.982;2023-08-06T06:22:35;99608.14;;;17.48;86.26
77013;BME280;67260;53.130;17.982;2023-08-06T06:25:02;99606.02;;;17.53;86.35
77013;BME280;67260;53.130;17.982;2023-08-06T06:27:29;99601.31;;;17.56;86.49
77013;BME280;67260;53.130;17.982;2023-08-06T06:29:56;99592.67;;;17.62;86.38
77013;BME280;67260;53.130;17.982;2023-08-06T06:32:32;99589.55;;;17.66;86.41
77013;BME280;67260;53.130;17.982;2023-08-06T06:35:01;99582.34;;;17.71;86.26
77013;BME280;67260;53.130;17.982;2023-08-06T06:37:29;99572.30;;;17.77;86.19
77013;BME280;67260;53.130;17.982;2023-08-06T06:39:56;99566.83;;;17.83;86.05
77013;BME280;67260;53.130;17.982;2023-08-06T06:42:22;99567.92;;;17.86;86.13
77013;BME280;67260;53.130;17.982;2023-08-06T06:44:50;99570.02;;;17.86;86.17
77013;BME280;67260;53.130;17.982;2023-08-06T06:47:17;99568.83;;;17.87;86.31
77013;BME280;67260;53.130;17.982;2023-08-06T06:49:44;99563.70;;;17.90;86.14
77013;BME280;67260;53.130;17.982;2023-08-06T06:52:11;99558.30;;;17.92;86.30
77013;BME280;67260;53.130;17.982;2023-08-06T06:54:38;99560.39;;;17.93;86.02
77013;BME280;67260;53.130;17.982;2023-08-06T06:57:07;99558.11;;;17.96;86.18
77013;BME280;67260;53.130;17.982;2023-08-06T06:59:34;99550.86;;;18.00;86.15
77013;BME280;67260;53.130;17.982;2023-08-06T07:02:00;99549.00;;;18.04;86.11
77013;BME280;67260;53.130;17.982;2023-08-06T07:04:29;99546.80;;;18.09;86.06
77013;BME280;67260;53.130;17.982;2023-08-06T07:06:56;99537.06;;;18.14;85.75
77013;BME280;67260;53.130;17.982;2023-08-06T07:09:26;99537.59;;;18.20;85.86
77013;BME280;67260;53.130;17.982;2023-08-06T07:11:52;99536.02;;;18.26;85.71
77013;BME280;67260;53.130;17.982;2023-08-06T07:14:19;99530.00;;;18.31;85.61
77013;BME280;67260;53.130;17.982;2023-08-06T07:16:46;99526.40;;;18.40;85.61
77013;BME280;67260;53.130;17.982;2023-08-06T07:19:13;99523.17;;;18.45;85.61
77013;BME280;67260;53.130;17.982;2023-08-06T07:21:39;99523.77;;;18.49;85.40
77013;BME280;67260;53.130;17.982;2023-08-06T07:24:06;99514.93;;;18.54;85.28
77013;BME280;67260;53.130;17.982;2023-08-06T07:26:33;99511.11;;;18.59;85.24
77013;BME280;67260;53.130;17.982;2023-08-06T07:29:04;99503.46;;;18.69;85.13
77013;BME280;67260;53.130;17.982;2023-08-06T07:31:31;99500.74;;;18.82;85.13
77013;BME280;67260;53.130;17.982;2023-08-06T07:34:00;99501.19;;;18.87;84.55
77013;BME280;67260;53.130;17.982;2023-08-06T07:36:26;99502.81;;;18.87;84.53
77013;BME280;67260;53.130;17.982;2023-08-06T07:38:53;99489.71;;;18.88;84.59
77013;BME280;67260;53.130;17.982;2023-08-06T07:41:23;99477.71;;;18.92;84.46
77013;BME280;67260;53.130;17.982;2023-08-06T07:43:50;99474.02;;;18.99;84.48
77013;BME280;67260;53.130;17.982;2023-08-06T07:46:21;99473.73;;;19.04;84.17
77013;BME280;67260;53.130;17.982;2023-08-06T07:48:53;99474.10;;;19.03;84.13
77013;BME280;67260;53.130;17.982;2023-08-06T07:51:20;99469.08;;;19.01;84.10
77013;BME280;67260;53.130;17.982;2023-08-06T07:53:47;99455.61;;;19.02;84.18
77013;BME280;67260;53.130;17.982;2023-08-06T07:56:13;99449.05;;;19.01;83.84
77013;BME280;67260;53.130;17.982;2023-08-06T07:58:40;99448.64;;;19.00;84.00
77013;BME280;67260;53.130;17.982;2023-08-06T08:01:07;99450.14;;;19.01;84.16
77013;BME280;67260;53.130;17.982;2023-08-06T08:03:34;99455.85;;;19.03;84.18
77013;BME280;67260;53.130;17.982;2023-08-06T08:06:00;99454.50;;;19.04;83.96
77013;BME280;67260;53.130;17.982;2023-08-06T08:08:27;99455.27;;;19.03;83.76
77013;BME280;67260;53.130;17.982;2023-08-06T08:10:54;99456.33;;;18.97;83.87
77013;BME280;67260;53.130;17.982;2023-08-06T08:13:21;99455.55;;;18.99;84.16
77013;BME280;67260;53.130;17.982;2023-08-06T08:19:11;99452.83;;;19.01;83.77
77013;BME280;67260;53.130;17.982;2023-08-06T08:21:39;99451.71;;;19.00;83.81
77013;BME280;67260;53.130;17.982;2023-08-06T08:24:10;99444.59;;;18.98;83.68
77013;BME280;67260;53.130;17.982;2023-08-06T08:26:40;99436.02;;;18.98;83.69
77013;BME280;67260;53.130;17.982;2023-08-06T08:29:22;99425.70;;;19.01;83.81
77013;BME280;67260;53.130;17.982;2023-08-06T08:32:06;99421.45;;;19.03;83.64
77013;BME280;67260;53.130;17.982;2023-08-06T08:34:38;99412.00;;;19.06;83.90
77013;BME280;67260;53.130;17.982;2023-08-06T08:40:32;99398.79;;;19.10;83.69
77013;BME280;67260;53.130;17.982;2023-08-06T08:43:06;99398.34;;;19.14;83.73
77013;BME280;67260;53.130;17.982;2023-08-06T08:45:39;99399.13;;;19.18;83.17
77013;BME280;67260;53.130;17.982;2023-08-06T08:48:07;99394.67;;;19.30;83.00
77013;BME280;67260;53.130;17.982;2023-08-06T08:50:54;99391.70;;;19.49;82.89
77013;BME280;67260;53.130;17.982;2023-08-06T08:53:27;99385.84;;;19.58;82.42
77013;BME280;67260;53.130;17.982;2023-08-06T09:05:20;99375.31;;;19.88;81.92
77013;BME280;67260;53.130;17.982;2023-08-06T09:07:56;99366.80;;;19.89;81.85
77013;BME280;67260;53.130;17.982;2023-08-06T09:11:37;99360.75;;;19.96;81.73
77013;BME280;67260;53.130;17.982;2023-08-06T09:14:07;99355.36;;;19.99;81.69
77013;BME280;67260;53.130;17.982;2023-08-06T09:16:54;99352.44;;;19.99;81.82
77013;BME280;67260;53.130;17.982;2023-08-06T09:19:57;99347.58;;;20.02;81.59
77013;BME280;67260;53.130;17.982;2023-08-06T09:22:33;99343.40;;;20.03;81.62
77013;BME280;67260;53.130;17.982;2023-08-06T09:25:11;99342.20;;;19.99;81.43
77013;BME280;67260;53.130;17.982;2023-08-06T09:27:40;99341.61;;;19.91;81.69
77013;BME280;67260;53.130;17.982;2023-08-06T09:30:10;99332.65;;;19.83;81.64
77013;BME280;67260;53.130;17.982;2023-08-06T09:32:51;99325.01;;;19.80;81.76
77013;BME280;67260;53.130;17.982;2023-08-06T09:35:29;99318.84;;;19.79;81.76
77013;BME280;67260;53.130;17.982;2023-08-06T09:53:25;99299.63;;;19.61;82.14
77013;BME280;67260;53.130;17.982;2023-08-06T09:57:50;99295.23;;;19.59;82.23
77013;BME280;67260;53.130;17.982;2023-08-06T10:00:37;99286.18;;;19.63;82.27
77013;BME280;67260;53.130;17.982;2023-08-06T10:10:10;99261.80;;;19.77;81.97
77013;BME280;67260;53.130;17.982;2023-08-06T10:12:45;99251.55;;;19.85;82.09
77013;BME280;67260;53.130;17.982;2023-08-06T10:15:22;99239.69;;;20.02;81.73
77013;BME280;67260;53.130;17.982;2023-08-06T10:18:11;99244.45;;;20.17;81.39
77013;BME280;67260;53.130;17.982;2023-08-06T10:21:00;99252.60;;;20.14;81.46
77013;BME280;67260;53.130;17.982;2023-08-06T10:23:48;99252.54;;;19.99;81.81
77013;BME280;67260;53.130;17.982;2023-08-06T10:26:38;99256.93;;;19.90;82.05
77013;BME280;67260;53.130;17.982;2023-08-06T10:29:36;99251.65;;;19.85;82.18
77013;BME280;67260;53.130;17.982;2023-08-06T10:32:47;99239.42;;;19.92;82.41
77013;BME280;67260;53.130;17.982;2023-08-06T10:38:27;99238.52;;;20.08;82.25
77013;BME280;67260;53.130;17.982;2023-08-06T10:48:29;99227.42;;;20.30;82.31
77013;BME280;67260;53.130;17.982;2023-08-06T10:51:00;99216.75;;;20.36;82.17
77013;BME280;67260;53.130;17.982;2023-08-06T10:53:35;99207.36;;;20.44;82.08
77013;BME280;67260;53.130;17.982;2023-08-06T10:56:43;99201.70;;;20.52;81.94
77013;BME280;67260;53.130;17.982;2023-08-06T10:59:49;99183.87;;;20.60;81.98
77013;BME280;67260;53.130;17.982;2023-08-06T11:02:55;99182.00;;;20.61;81.88
77013;BME280;67260;53.130;17.982;2023-08-06T11:15:20;99160.51;;;20.75;81.64
77013;BME280;67260;53.130;17.982;2023-08-06T11:28:07;99139.65;;;20.76;81.55
77013;BME280;67260;53.130;17.982;2023-08-06T11:30:38;99134.75;;;20.74;81.61
77013;BME280;67260;53.130;17.982;2023-08-06T11:33:25;99130.54;;;20.64;81.75
77013;BME280;67260;53.130;17.982;2023-08-06T11:35:57;99120.39;;;20.54;81.83
77013;BME280;67260;53.130;17.982;2023-08-06T11:38:30;99112.63;;;20.46;81.81
77013;BME280;67260;53.130;17.982;2023-08-06T11:41:07;99103.27;;;20.43;82.09
77013;BME280;67260;53.130;17.982;2023-08-06T11:51:30;99085.16;;;20.31;82.41
77013;BME280;67260;53.130;17.982;2023-08-06T11:54:02;99083.19;;;20.30;82.68
77013;BME280;67260;53.130;17.982;2023-08-06T11:56:32;99078.16;;;20.26;82.64
77013;BME280;67260;53.130;17.982;2023-08-06T11:59:00;99079.96;;;20.25;82.72
77013;BME280;67260;53.130;17.982;2023-08-06T12:01:56;99076.34;;;20.24;82.81
77013;BME280;67260;53.130;17.982;2023-08-06T12:07:40;99067.83;;;20.21;82.91
77013;BME280;67260;53.130;17.982;2023-08-06T12:17:09;99058.15;;;20.29;83.17
77013;BME280;67260;53.130;17.982;2023-08-06T12:19:54;99065.10;;;20.29;83.01
77013;BME280;67260;53.130;17.982;2023-08-06T12:22:39;99062.23;;;20.27;83.05
77013;BME280;67260;53.130;17.982;2023-08-06T12:25:38;99067.69;;;20.25;83.01
77013;BME280;67260;53.130;17.982;2023-08-06T12:31:09;99058.27;;;20.18;83.26
77013;BME280;67260;53.130;17.982;2023-08-06T12:33:50;99054.29;;;20.16;83.39
77013;BME280;67260;53.130;17.982;2023-08-06T12:36:20;99058.66;;;20.15;83.57
77013;BME280;67260;53.130;17.982;2023-08-06T12:38:48;99058.15;;;20.16;83.73
77013;BME280;67260;53.130;17.982;2023-08-06T12:41:14;99052.86;;;20.15;83.79
77013;BME280;67260;53.130;17.982;2023-08-06T12:43:50;99047.10;;;20.12;83.85
77013;BME280;67260;53.130;17.982;2023-08-06T12:46:23;99034.13;;;20.10;84.00
77013;BME280;67260;53.130;17.982;2023-08-06T12:48:52;99025.27;;;20.12;84.09
77013;BME280;67260;53.130;17.982;2023-08-06T12:51:24;99020.50;;;20.15;84.17
77013;BME280;67260;53.130;17.982;2023-08-06T12:54:17;99024.81;;;20.14;84.16
77013;BME280;67260;53.130;17.982;2023-08-06T12:56:48;99016.48;;;20.16;84.34
77013;BME280;67260;53.130;17.982;2023-08-06T12:59:18;99008.27;;;20.18;84.25
77013;BME280;67260;53.130;17.982;2023-08-06T13:01:46;99004.05;;;20.25;84.18
77013;BME280;67260;53.130;17.982;2023-08-06T13:04:13;98997.98;;;20.30;84.21
77013;BME280;67260;53.130;17.982;2023-08-06T13:06:41;98995.91;;;20.34;84.27
77013;BME280;67260;53.130;17.982;2023-08-06T13:09:13;99000.33;;;20.43;84.24
77013;BME280;67260;53.130;17.982;2023-08-06T13:15:26;98987.41;;;20.61;83.75
77013;BME280;67260;53.130;17.982;2023-08-06T13:17:57;98974.98;;;20.70;83.70
77013;BME280;67260;53.130;17.982;2023-08-06T13:20:26;98968.44;;;20.79;83.57
77013;BME280;67260;53.130;17.982;2023-08-06T13:22:58;98963.12;;;20.95;83.19
77013;BME280;67260;53.130;17.982;2023-08-06T13:25:56;98954.31;;;21.17;82.93
77013;BME280;67260;53.130;17.982;2023-08-06T13:29:22;98951.65;;;21.46;82.39
77013;BME280;67260;53.130;17.982;2023-08-06T13:36:21;98946.73;;;22.25;80.72
77013;BME280;67260;53.130;17.982;2023-08-06T13:44:48;98959.65;;;22.57;79.77
77013;BME280;67260;53.130;17.982;2023-08-06T13:47:17;98966.46;;;22.42;80.54
77013;BME280;67260;53.130;17.982;2023-08-06T13:56:10;98952.71;;;22.47;80.41
77013;BME280;67260;53.130;17.982;2023-08-06T13:58:44;98953.09;;;22.53;80.19
77013;BME280;67260;53.130;17.982;2023-08-06T14:01:21;98952.48;;;22.61;80.22
77013;BME280;67260;53.130;17.982;2023-08-06T14:04:06;98939.05;;;22.80;80.07
77013;BME280;67260;53.130;17.982;2023-08-06T14:07:01;98933.14;;;22.97;79.55
77013;BME280;67260;53.130;17.982;2023-08-06T14:10:19;98925.96;;;23.10;79.61
77013;BME280;67260;53.130;17.982;2023-08-06T14:13:07;98921.78;;;23.41;78.91
77013;BME280;67260;53.130;17.982;2023-08-06T14:15:49;98923.48;;;23.42;79.02
77013;BME280;67260;53.130;17.982;2023-08-06T14:18:33;98924.65;;;23.43;78.76
77013;BME280;67260;53.130;17.982;2023-08-06T14:25:19;98935.55;;;23.32;78.90
77013;BME280;67260;53.130;17.982;2023-08-06T14:28:14;98954.81;;;23.16;78.60
77013;BME280;67260;53.130;17.982;2023-08-06T14:30:54;98974.33;;;22.64;77.57
77013;BME280;67260;53.130;17.982;2023-08-06T14:33:24;98956.88;;;22.15;79.21
77013;BME280;67260;53.130;17.982;2023-08-06T14:36:07;98964.95;;;21.97;79.90
77013;BME280;67260;53.130;17.982;2023-08-06T14:39:04;98957.61;;;22.03;79.93
77013;BME280;67260;53.130;17.982;2023-08-06T14:41:54;98949.02;;;22.09;79.67
77013;BME280;67260;53.130;17.982;2023-08-06T14:46:05;98942.63;;;22.07;79.17
77013;BME280;67260;53.130;17.982;2023-08-06T14:48:49;98933.58;;;22.08;78.99
77013;BME280;67260;53.130;17.982;2023-08-06T14:51:41;98929.25;;;22.09;79.12
77013;BME280;67260;53.130;17.982;2023-08-06T14:54:32;98932.45;;;21.96;79.16
77013;BME280;67260;53.130;17.982;2023-08-06T14:57:52;98937.98;;;21.68;79.64
77013;BME280;67260;53.130;17.982;2023-08-06T15:00:37;98946.42;;;21.41;79.85
77013;BME280;67260;53.130;17.982;2023-08-06T15:03:50;98953.59;;;21.22;79.26
77013;BME280;67260;53.130;17.982;2023-08-06T15:06:22;98962.95;;;20.86;78.15
77013;BME280;67260;53.130;17.982;2023-08-06T15:08:52;98972.04;;;20.45;78.02
77013;BME280;67260;53.130;17.982;2023-08-06T15:11:32;98974.23;;;20.09;78.97
77013;BME280;67260;53.130;17.982;2023-08-06T15:14:11;98982.25;;;19.74;79.33
77013;BME280;67260;53.130;17.982;2023-08-06T15:16:47;98982.88;;;19.51;79.86
77013;BME280;67260;53.130;17.982;2023-08-06T15:19:15;98984.65;;;19.40;80.18
77013;BME280;67260;53.130;17.982;2023-08-06T15:22:04;98987.75;;;19.30;80.21
77013;BME280;67260;53.130;17.982;2023-08-06T15:24:52;98996.04;;;19.07;80.21
77013;BME280;67260;53.130;17.982;2023-08-06T15:27:23;99004.55;;;18.85;80.55
77013;BME280;67260;53.130;17.982;2023-08-06T15:29:56;98997.60;;;18.67;80.75
77013;BME280;67260;53.130;17.982;2023-08-06T15:32:26;99009.23;;;18.58;81.21
77013;BME280;67260;53.130;17.982;2023-08-06T15:34:56;99016.41;;;18.49;81.34
77013;BME280;67260;53.130;17.982;2023-08-06T15:37:34;99017.55;;;18.41;81.66
77013;BME280;67260;53.130;17.982;2023-08-06T15:40:01;99012.76;;;18.30;81.73
77013;BME280;67260;53.130;17.982;2023-08-06T15:42:28;99008.73;;;18.30;81.77
77013;BME280;67260;53.130;17.982;2023-08-06T15:44:55;99008.63;;;18.37;81.51